Time;durP1;ratioP1;P1;durP2;ratioP2;P2;SDS_P1;SDS_P2;PMS_P1;PMS_P2;Temp;Humidity;BMP_temperature;BMP_pressure;BME280_temperature;BME280_humidity;BME280_pressure;Samples;Min_cycle;Max_cycle;Signal;HPM_P1;HPM_P2
2021/08/12 00:01:02;;;;;;;;;;;22.20;62.30;;;;;;5065220;28;19919;-68
2021/08/12 00:03:27;;;;;;;;;;;22.20;62.60;;;;;;5062227;28;20003;-67
2021/08/12 00:05:53;;;;;;;;;;;22.20;62.60;;;;;;5068791;28;19997;-68
2021/08/12 00:08:18;;;;;;;;;;;22.20;62.70;;;;;;5066433;28;20279;-67
2021/08/12 00:10:44;;;;;;;;;;;22.20;62.60;;;;;;5068011;28;19916;-67
2021/08/12 00:13:09;;;;;;;;;;;22.20;62.60;;;;;;5069643;28;19912;-67
2021/08/12 00:15:35;;;;;;;;;;;22.20;62.50;;;;;;5056897;28;19913;-67
2021/08/12 00:18:00;;;;;;;;;;;22.20;62.50;;;;;;5069332;28;20424;-68
2021/08/12 00:20:26;;;;;;;;;;;22.20;62.40;;;;;;5065829;28;19981;-67
2021/08/12 00:22:52;;;;;;;;;;;22.20;62.50;;;;;;5069184;28;19927;-68
2021/08/12 00:25:17;;;;;;;;;;;22.20;62.50;;;;;;5064219;28;19913;-68
2021/08/12 00:27:43;;;;;;;;;;;22.20;62.50;;;;;;5068764;28;19966;-68
2021/08/12 00:30:08;;;;;;;;;;;22.20;62.50;;;;;;5058837;28;20377;-67
2021/08/12 00:32:34;;;;;;;;;;;22.10;62.50;;;;;;5068461;28;20382;-67
2021/08/12 00:34:59;;;;;;;;;;;22.20;62.50;;;;;;5065050;28;20393;-68
2021/08/12 00:37:25;;;;;;;;;;;22.20;62.50;;;;;;5068079;28;19997;-67
2021/08/12 00:39:50;;;;;;;;;;;22.10;62.40;;;;;;5064554;28;19921;-68
2021/08/12 00:42:15;;;;;;;;;;;22.20;62.40;;;;;;5067484;28;19917;-68
2021/08/12 00:44:41;;;;;;;;;;;22.20;62.50;;;;;;5066382;28;20405;-67
2021/08/12 00:47:06;;;;;;;;;;;22.10;62.40;;;;;;5068551;28;19954;-68
2021/08/12 00:49:37;;;;;;;;;;;22.20;62.50;;;;;;5064163;28;19917;-68
2021/08/12 00:52:03;;;;;;;;;;;22.10;62.40;;;;;;5067761;28;20489;-67
2021/08/12 00:54:29;;;;;;;;;;;22.20;62.30;;;;;;5063456;28;19932;-67
2021/08/12 00:56:54;;;;;;;;;;;22.10;62.30;;;;;;5068085;28;20432;-68
2021/08/12 00:59:20;;;;;;;;;;;22.20;62.20;;;;;;5076326;22;19944;-63
2021/08/12 01:01:45;;;;;;;;;;;22.10;62.30;;;;;;5020062;28;19917;-63
2021/08/12 01:04:11;;;;;;;;;;;22.10;62.30;;;;;;5024003;28;20328;-64
2021/08/12 01:06:59;;;;;;;;;;;22.20;62.40;;;;;;5025860;28;19924;-64
2021/08/12 01:09:39;;;;;;;;;;;22.10;62.40;;;;;;5015202;28;19917;-62
2021/08/12 01:12:06;;;;;;;;;;;22.10;62.30;;;;;;5025750;28;19917;-64
2021/08/12 01:14:40;;;;;;;;;;;22.10;62.30;;;;;;5023030;28;19924;-63
2021/08/12 01:17:06;;;;;;;;;;;22.10;62.30;;;;;;5023619;28;20274;-63
2021/08/12 01:19:50;;;;;;;;;;;22.10;62.20;;;;;;5023623;28;19919;-62
2021/08/12 01:22:17;;;;;;;;;;;22.10;61.90;;;;;;5024720;28;20203;-62
2021/08/12 01:24:43;;;;;;;;;;;22.10;62.30;;;;;;5024928;28;19913;-63
2021/08/12 01:27:09;;;;;;;;;;;22.10;62.30;;;;;;5024051;28;20528;-62
2021/08/12 01:29:53;;;;;;;;;;;22.10;62.30;;;;;;5006355;28;20341;-63
2021/08/12 01:32:20;;;;;;;;;;;22.10;62.30;;;;;;5019732;28;19940;-63
2021/08/12 01:34:53;;;;;;;;;;;22.10;62.30;;;;;;5036250;28;19917;-64
2021/08/12 01:37:18;;;;;;;;;;;22.10;62.30;;;;;;5042982;28;20293;-63
2021/08/12 01:39:44;;;;;;;;;;;22.10;62.20;;;;;;5042521;28;19963;-64
2021/08/12 01:42:10;;;;;;;;;;;22.10;62.30;;;;;;5044756;28;20421;-63
2021/08/12 01:44:36;;;;;;;;;;;22.10;62.10;;;;;;5026576;28;19986;-63
2021/08/12 01:47:01;;;;;;;;;;;22.10;62.10;;;;;;5042257;28;19925;-63
2021/08/12 01:49:26;;;;;;;;;;;22.10;62.00;;;;;;5042163;28;20011;-63
2021/08/12 01:51:52;;;;;;;;;;;22.10;61.90;;;;;;5043827;28;19920;-62
2021/08/12 01:54:18;;;;;;;;;;;22.10;62.10;;;;;;5042412;28;20104;-63
2021/08/12 01:56:43;;;;;;;;;;;22.00;62.00;;;;;;5043480;28;19921;-63
2021/08/12 01:59:09;;;;;;;;;;;22.00;61.90;;;;;;5044171;28;20289;-63
2021/08/12 02:01:34;;;;;;;;;;;22.00;61.90;;;;;;5036239;28;20014;-63
2021/08/12 02:04:00;;;;;;;;;;;22.10;61.90;;;;;;5025680;28;19916;-62
2021/08/12 02:06:26;;;;;;;;;;;22.00;61.90;;;;;;5043444;28;19944;-63
2021/08/12 02:08:51;;;;;;;;;;;22.10;61.90;;;;;;5041471;28;19917;-63
2021/08/12 02:11:17;;;;;;;;;;;22.00;61.70;;;;;;5043155;28;19913;-63
2021/08/12 02:13:42;;;;;;;;;;;22.10;62.00;;;;;;5043503;28;20556;-63
2021/08/12 02:16:09;;;;;;;;;;;22.00;61.80;;;;;;5041984;28;19913;-63
2021/08/12 02:18:40;;;;;;;;;;;22.00;61.70;;;;;;5041878;28;19968;-63
2021/08/12 02:21:13;;;;;;;;;;;22.00;61.90;;;;;;5042865;28;19913;-62
2021/08/12 02:23:45;;;;;;;;;;;22.00;61.80;;;;;;5042769;28;20370;-63
2021/08/12 02:26:14;;;;;;;;;;;22.00;61.50;;;;;;5042379;28;19912;-62
2021/08/12 02:28:41;;;;;;;;;;;22.00;61.80;;;;;;5041843;28;19912;-63
2021/08/12 02:31:06;;;;;;;;;;;22.00;61.80;;;;;;5024069;28;20393;-63
2021/08/12 02:33:35;;;;;;;;;;;22.00;62.40;;;;;;5003519;28;19917;-62
2021/08/12 02:36:01;;;;;;;;;;;22.00;61.80;;;;;;5002104;28;20294;-61
2021/08/12 02:38:26;;;;;;;;;;;22.00;61.80;;;;;;4985720;28;20007;-63
2021/08/12 02:40:52;;;;;;;;;;;22.00;61.80;;;;;;5002843;28;19921;-63
2021/08/12 02:43:19;;;;;;;;;;;22.00;61.80;;;;;;5002795;28;20283;-62
2021/08/12 02:45:44;;;;;;;;;;;22.00;61.70;;;;;;5003962;28;19918;-63
2021/08/12 02:48:10;;;;;;;;;;;22.00;61.80;;;;;;5002700;28;20286;-63
2021/08/12 02:50:36;;;;;;;;;;;22.00;61.70;;;;;;5002715;28;19913;-63
2021/08/12 02:53:01;;;;;;;;;;;22.00;61.50;;;;;;5003857;28;21087;-62
2021/08/12 02:55:27;;;;;;;;;;;22.00;61.50;;;;;;5002600;28;19949;-62
2021/08/12 02:57:52;;;;;;;;;;;22.00;61.70;;;;;;5001909;28;20478;-63
2021/08/12 03:00:18;;;;;;;;;;;22.00;61.50;;;;;;5002821;28;19929;-63
2021/08/12 03:02:47;;;;;;;;;;;22.00;61.60;;;;;;5015215;28;20341;-63
2021/08/12 03:05:14;;;;;;;;;;;21.90;61.30;;;;;;5026466;28;19913;-63
2021/08/12 03:07:40;;;;;;;;;;;21.90;61.50;;;;;;5032739;28;20496;-63
2021/08/12 03:10:05;;;;;;;;;;;21.90;61.40;;;;;;5029955;28;20107;-63
2021/08/12 03:12:31;;;;;;;;;;;21.90;61.30;;;;;;5035466;28;19928;-63
2021/08/12 03:14:56;;;;;;;;;;;21.90;61.30;;;;;;5029573;28;19919;-63
2021/08/12 03:17:22;;;;;;;;;;;21.90;61.50;;;;;;5028414;28;19956;-63
2021/08/12 03:19:47;;;;;;;;;;;21.90;61.40;;;;;;5031608;28;19998;-62
2021/08/12 03:22:13;;;;;;;;;;;21.90;61.30;;;;;;5033412;28;19928;-63
2021/08/12 03:24:39;;;;;;;;;;;21.90;61.50;;;;;;5035596;28;19913;-62
2021/08/12 03:27:07;;;;;;;;;;;21.90;61.20;;;;;;5031057;28;20012;-63
2021/08/12 03:29:32;;;;;;;;;;;21.90;61.30;;;;;;5030247;28;20588;-64
2021/08/12 03:31:58;;;;;;;;;;;21.90;61.30;;;;;;5038232;28;19913;-63
2021/08/12 03:34:23;;;;;;;;;;;21.90;61.30;;;;;;5034070;28;20421;-63
2021/08/12 03:36:48;;;;;;;;;;;21.90;61.30;;;;;;5029672;28;20026;-63
2021/08/12 03:39:14;;;;;;;;;;;21.90;61.30;;;;;;5031762;28;20735;-63
2021/08/12 03:41:40;;;;;;;;;;;21.90;61.40;;;;;;5034626;28;19913;-63
2021/08/12 03:44:05;;;;;;;;;;;21.90;61.10;;;;;;5030547;28;19913;-62
2021/08/12 03:46:31;;;;;;;;;;;21.90;61.50;;;;;;5020334;28;19917;-62
2021/08/12 03:48:56;;;;;;;;;;;21.90;61.20;;;;;;5029905;28;19921;-63
2021/08/12 03:51:21;;;;;;;;;;;21.90;61.30;;;;;;5040152;28;19924;-62
2021/08/12 03:53:47;;;;;;;;;;;21.90;61.40;;;;;;5016411;28;20272;-62
2021/08/12 03:56:12;;;;;;;;;;;21.90;61.10;;;;;;5029423;28;19913;-63
2021/08/12 03:58:40;;;;;;;;;;;21.90;61.30;;;;;;5026984;28;19921;-63
2021/08/12 04:01:05;;;;;;;;;;;21.80;61.20;;;;;;5034049;28;19960;-63
2021/08/12 04:03:31;;;;;;;;;;;21.80;61.00;;;;;;5036612;28;19963;-63
2021/08/12 04:05:57;;;;;;;;;;;21.90;61.10;;;;;;5033341;28;19920;-62
2021/08/12 04:08:22;;;;;;;;;;;21.80;61.10;;;;;;5036674;28;19917;-63
2021/08/12 04:10:48;;;;;;;;;;;21.90;61.00;;;;;;5036998;28;19920;-63
2021/08/12 04:13:13;;;;;;;;;;;21.90;61.00;;;;;;5032771;28;19913;-63
2021/08/12 04:15:38;;;;;;;;;;;21.80;61.60;;;;;;5037557;28;19917;-63
2021/08/12 04:18:04;;;;;;;;;;;21.80;60.90;;;;;;5035129;28;19966;-63
2021/08/12 04:20:29;;;;;;;;;;;21.80;61.30;;;;;;5033060;28;20437;-63
2021/08/12 04:22:55;;;;;;;;;;;21.80;61.50;;;;;;5036104;28;19917;-63
2021/08/12 04:25:20;;;;;;;;;;;21.80;61.20;;;;;;5036679;28;19917;-63
2021/08/12 04:27:46;;;;;;;;;;;21.80;61.40;;;;;;5033944;28;20439;-63
2021/08/12 04:30:11;;;;;;;;;;;21.80;61.90;;;;;;5038818;28;19999;-63
2021/08/12 04:32:37;;;;;;;;;;;21.80;61.40;;;;;;5031576;28;19920;-63
2021/08/12 04:35:03;;;;;;;;;;;21.80;61.30;;;;;;5038118;28;19931;-63
2021/08/12 04:37:36;;;;;;;;;;;21.80;61.40;;;;;;5028040;28;19932;-63
2021/08/12 04:40:02;;;;;;;;;;;21.80;61.30;;;;;;5028769;28;19939;-63
2021/08/12 04:42:27;;;;;;;;;;;21.80;61.20;;;;;;5037802;28;20566;-62
2021/08/12 04:44:53;;;;;;;;;;;21.80;61.10;;;;;;5032428;28;19955;-63
2021/08/12 04:47:18;;;;;;;;;;;21.80;61.20;;;;;;5033058;28;20446;-63
2021/08/12 04:49:44;;;;;;;;;;;21.80;61.20;;;;;;5031395;28;19913;-63
2021/08/12 04:52:09;;;;;;;;;;;21.90;61.40;;;;;;5032330;28;19917;-63
2021/08/12 04:54:35;;;;;;;;;;;21.80;61.30;;;;;;5042017;28;20373;-63
2021/08/12 04:57:00;;;;;;;;;;;21.80;61.00;;;;;;5032248;28;19970;-62
2021/08/12 04:59:26;;;;;;;;;;;21.80;60.40;;;;;;5032216;28;20306;-62
2021/08/12 05:01:54;;;;;;;;;;;21.80;60.00;;;;;;5032325;28;19948;-62
2021/08/12 05:04:19;;;;;;;;;;;21.80;59.70;;;;;;5027874;28;20594;-63
2021/08/12 05:06:45;;;;;;;;;;;21.80;59.60;;;;;;5032918;28;19917;-62
2021/08/12 05:09:10;;;;;;;;;;;21.80;59.60;;;;;;5033734;28;20338;-63
2021/08/12 05:11:36;;;;;;;;;;;21.80;59.50;;;;;;5022840;28;19913;-63
2021/08/12 05:14:01;;;;;;;;;;;21.80;59.50;;;;;;5036414;28;19920;-63
2021/08/12 05:16:27;;;;;;;;;;;21.80;59.50;;;;;;5033965;28;19923;-63
2021/08/12 05:18:52;;;;;;;;;;;21.70;59.50;;;;;;5031769;28;20388;-63
2021/08/12 05:21:17;;;;;;;;;;;21.70;59.60;;;;;;5037883;28;19917;-62
2021/08/12 05:23:44;;;;;;;;;;;21.70;59.60;;;;;;5043466;28;19916;-63
2021/08/12 05:26:10;;;;;;;;;;;21.70;60.20;;;;;;5033776;28;19945;-63
2021/08/12 05:28:35;;;;;;;;;;;21.70;60.40;;;;;;5040884;28;20078;-62
2021/08/12 05:31:02;;;;;;;;;;;21.70;60.60;;;;;;5036946;28;19916;-63
2021/08/12 05:33:27;;;;;;;;;;;21.70;60.70;;;;;;5036869;28;19928;-61
2021/08/12 05:35:53;;;;;;;;;;;21.80;60.70;;;;;;5033399;28;19917;-63
2021/08/12 05:38:18;;;;;;;;;;;21.80;60.70;;;;;;5036029;28;20127;-63
2021/08/12 05:40:44;;;;;;;;;;;21.80;60.70;;;;;;5032094;28;19970;-61
2021/08/12 05:43:09;;;;;;;;;;;21.80;60.70;;;;;;5036931;28;19917;-63
2021/08/12 05:45:35;;;;;;;;;;;21.80;60.70;;;;;;5032329;28;19921;-63
2021/08/12 05:48:00;;;;;;;;;;;21.70;60.70;;;;;;5030358;28;20398;-63
2021/08/12 05:50:25;;;;;;;;;;;21.80;60.80;;;;;;5040184;28;19917;-62
2021/08/12 05:52:51;;;;;;;;;;;21.70;60.80;;;;;;5038347;28;19923;-61
2021/08/12 05:55:16;;;;;;;;;;;21.80;61.00;;;;;;5032998;28;19917;-63
2021/08/12 05:57:42;;;;;;;;;;;21.80;61.10;;;;;;5037535;28;19929;-63
2021/08/12 06:00:08;;;;;;;;;;;21.70;61.10;;;;;;5031855;28;19921;-63
2021/08/12 06:02:33;;;;;;;;;;;21.80;61.30;;;;;;5030330;28;20095;-63
2021/08/12 06:04:59;;;;;;;;;;;21.80;61.40;;;;;;5033348;28;19917;-62
2021/08/12 06:07:24;;;;;;;;;;;21.80;61.50;;;;;;5033247;28;20037;-62
2021/08/12 06:09:50;;;;;;;;;;;21.70;61.60;;;;;;5035216;28;19921;-62
2021/08/12 06:12:15;;;;;;;;;;;21.80;61.70;;;;;;5029571;28;19923;-63
2021/08/12 06:14:41;;;;;;;;;;;21.70;61.70;;;;;;5031338;28;20357;-62
2021/08/12 06:17:06;;;;;;;;;;;21.80;61.90;;;;;;5032561;28;19940;-62
2021/08/12 06:19:32;;;;;;;;;;;21.70;62.00;;;;;;5030173;28;19928;-62
2021/08/12 06:21:57;;;;;;;;;;;21.70;62.00;;;;;;5028008;28;19917;-62
2021/08/12 06:24:23;;;;;;;;;;;21.70;62.20;;;;;;5029333;28;20028;-62
2021/08/12 06:26:48;;;;;;;;;;;21.80;62.30;;;;;;5034217;28;20301;-62
2021/08/12 06:29:14;;;;;;;;;;;21.80;62.30;;;;;;5032127;28;19920;-63
2021/08/12 06:31:39;;;;;;;;;;;21.70;62.30;;;;;;5032675;28;19913;-62
2021/08/12 06:34:04;;;;;;;;;;;21.70;62.40;;;;;;5043348;28;20251;-60
2021/08/12 06:36:32;;;;;;;;;;;21.70;62.50;;;;;;5006544;28;19916;-62
2021/08/12 06:38:59;;;;;;;;;;;21.70;62.50;;;;;;5034131;28;19921;-63
2021/08/12 06:41:25;;;;;;;;;;;21.70;62.60;;;;;;5033656;28;19913;-62
2021/08/12 06:43:51;;;;;;;;;;;21.80;62.60;;;;;;5031680;28;20500;-62
2021/08/12 06:46:16;;;;;;;;;;;21.80;62.60;;;;;;5031851;28;19935;-62
2021/08/12 06:48:41;;;;;;;;;;;21.70;62.60;;;;;;5029467;28;20381;-62
2021/08/12 06:51:07;;;;;;;;;;;21.70;62.60;;;;;;5034065;28;19917;-63
2021/08/12 06:53:33;;;;;;;;;;;21.70;62.60;;;;;;5034074;28;20004;-63
2021/08/12 06:55:58;;;;;;;;;;;21.70;62.70;;;;;;5025364;28;20462;-62
2021/08/12 06:58:23;;;;;;;;;;;21.70;62.70;;;;;;5029608;28;19920;-61
2021/08/12 07:00:51;;;;;;;;;;;21.70;62.60;;;;;;5054047;23;21240;-61
2021/08/12 07:03:16;;;;;;;;;;;21.70;62.60;;;;;;5051343;28;19923;-62
2021/08/12 07:05:41;;;;;;;;;;;21.70;62.60;;;;;;5042688;28;19956;-61
2021/08/12 07:08:08;;;;;;;;;;;21.70;62.60;;;;;;5040117;28;19917;-61
2021/08/12 07:10:34;;;;;;;;;;;21.70;62.60;;;;;;5041079;28;25282;-61
2021/08/12 07:12:59;;;;;;;;;;;21.70;62.60;;;;;;5045623;28;19927;-62
2021/08/12 07:15:25;;;;;;;;;;;21.70;62.50;;;;;;5062205;28;19913;-61
2021/08/12 07:17:50;;;;;;;;;;;21.70;62.50;;;;;;5061622;28;19928;-61
2021/08/12 07:20:16;;;;;;;;;;;21.70;62.50;;;;;;5062449;28;20288;-61
2021/08/12 07:22:41;;;;;;;;;;;21.70;62.50;;;;;;5062522;28;19983;-60
2021/08/12 07:25:07;;;;;;;;;;;21.70;62.70;;;;;;5062158;28;19916;-61
2021/08/12 07:27:32;;;;;;;;;;;21.70;62.90;;;;;;5061873;28;19913;-59
2021/08/12 07:29:58;;;;;;;;;;;21.70;63.10;;;;;;5062180;28;19994;-60
2021/08/12 07:32:23;;;;;;;;;;;21.70;63.30;;;;;;5061861;28;19916;-60
2021/08/12 07:34:48;;;;;;;;;;;21.70;63.40;;;;;;5062471;28;19919;-60
2021/08/12 07:37:14;;;;;;;;;;;21.70;63.30;;;;;;5062800;28;19920;-61
2021/08/12 07:39:39;;;;;;;;;;;21.70;63.10;;;;;;5061689;28;19917;-61
2021/08/12 07:42:05;;;;;;;;;;;21.70;63.20;;;;;;5062117;28;19920;-60
2021/08/12 07:44:30;;;;;;;;;;;21.70;63.30;;;;;;5062523;28;19986;-60
2021/08/12 07:46:56;;;;;;;;;;;21.70;63.20;;;;;;5062355;28;19924;-59
2021/08/12 07:49:21;;;;;;;;;;;21.70;63.20;;;;;;5062136;28;20397;-62
2021/08/12 07:51:47;;;;;;;;;;;21.70;63.30;;;;;;5061889;28;19912;-60
2021/08/12 07:54:13;;;;;;;;;;;21.70;63.30;;;;;;5061816;28;20336;-60
2021/08/12 07:56:38;;;;;;;;;;;21.70;63.30;;;;;;5061953;28;19923;-61
2021/08/12 07:59:04;;;;;;;;;;;21.70;63.30;;;;;;5061163;28;19917;-60
2021/08/12 08:01:29;;;;;;;;;;;21.70;63.30;;;;;;5061801;28;20320;-61
2021/08/12 08:03:58;;;;;;;;;;;21.70;63.20;;;;;;5061053;28;19970;-60
2021/08/12 08:06:24;;;;;;;;;;;21.70;63.30;;;;;;5059037;28;19924;-61
2021/08/12 08:08:49;;;;;;;;;;;21.70;63.30;;;;;;5060542;28;19920;-57
2021/08/12 08:11:17;;;;;;;;;;;21.70;63.30;;;;;;5062586;28;20293;-61
2021/08/12 08:13:42;;;;;;;;;;;21.70;63.30;;;;;;5062104;28;19999;-61
2021/08/12 08:16:07;;;;;;;;;;;21.70;63.20;;;;;;5060459;28;20008;-58
2021/08/12 08:18:33;;;;;;;;;;;21.70;63.20;;;;;;5061133;28;19962;-60
2021/08/12 08:20:58;;;;;;;;;;;21.70;63.20;;;;;;5061692;28;19917;-60
2021/08/12 08:23:24;;;;;;;;;;;21.70;63.20;;;;;;5061939;28;20348;-60
2021/08/12 08:25:49;;;;;;;;;;;21.70;63.20;;;;;;5065239;28;20009;-61
2021/08/12 08:28:15;;;;;;;;;;;21.70;63.30;;;;;;5065765;28;19923;-61
2021/08/12 08:30:40;;;;;;;;;;;21.70;63.80;;;;;;5065326;28;19912;-60
2021/08/12 08:33:06;;;;;;;;;;;21.70;63.20;;;;;;5065635;28;20413;-60
2021/08/12 08:35:31;;;;;;;;;;;21.70;62.80;;;;;;5065093;28;19924;-60
2021/08/12 08:37:57;;;;;;;;;;;21.70;62.90;;;;;;5064313;28;19928;-61
2021/08/12 08:40:22;;;;;;;;;;;21.70;62.90;;;;;;5065018;28;19997;-61
2021/08/12 08:42:48;;;;;;;;;;;21.70;62.70;;;;;;5064933;28;19966;-61
2021/08/12 08:45:13;;;;;;;;;;;21.70;62.50;;;;;;5065464;28;20461;-61
2021/08/12 08:47:42;;;;;;;;;;;21.70;60.80;;;;;;5063702;28;19981;-59
2021/08/12 08:50:09;;;;;;;;;;;21.70;61.60;;;;;;5064854;28;20377;-60
2021/08/12 08:52:34;;;;;;;;;;;21.70;61.40;;;;;;5063187;28;19928;-61
2021/08/12 08:55:00;;;;;;;;;;;21.70;61.20;;;;;;5062521;28;20308;-60
2021/08/12 08:57:25;;;;;;;;;;;21.70;60.60;;;;;;5042630;28;19921;-60
2021/08/12 08:59:51;;;;;;;;;;;21.70;59.30;;;;;;5064303;28;19916;-61
2021/08/12 09:02:16;;;;;;;;;;;21.70;60.20;;;;;;5062805;28;19916;-62
2021/08/12 09:04:42;;;;;;;;;;;21.70;60.50;;;;;;5065139;28;20440;-61
2021/08/12 09:07:08;;;;;;;;;;;21.70;60.70;;;;;;5064139;28;19989;-60
2021/08/12 09:09:34;;;;;;;;;;;21.70;60.60;;;;;;5064361;28;19959;-60
2021/08/12 09:12:00;;;;;;;;;;;21.70;60.50;;;;;;5063072;28;19955;-61
2021/08/12 09:14:35;;;;;;;;;;;21.70;60.50;;;;;;5064359;28;19919;-60
2021/08/12 09:17:18;;;;;;;;;;;21.70;60.50;;;;;;5064456;28;20388;-60
2021/08/12 09:19:56;;;;;;;;;;;21.60;60.60;;;;;;5055939;28;19922;-61
2021/08/12 09:22:21;;;;;;;;;;;21.70;60.30;;;;;;5064257;28;19927;-60
2021/08/12 09:24:50;;;;;;;;;;;21.60;60.20;;;;;;5064532;28;19912;-61
2021/08/12 09:27:19;;;;;;;;;;;21.60;60.60;;;;;;5064150;28;20460;-62
2021/08/12 09:29:45;;;;;;;;;;;21.70;60.70;;;;;;5064547;28;19913;-60
2021/08/12 09:32:10;;;;;;;;;;;21.70;60.60;;;;;;5063917;28;19913;-61
2021/08/12 09:34:40;;;;;;;;;;;21.70;60.50;;;;;;5064164;28;19920;-59
2021/08/12 09:37:05;;;;;;;;;;;21.70;60.50;;;;;;5059307;28;19943;-61
2021/08/12 09:39:31;;;;;;;;;;;21.70;60.50;;;;;;5063806;28;20349;-61
2021/08/12 09:41:56;;;;;;;;;;;21.70;60.60;;;;;;5063924;28;19983;-60
2021/08/12 09:44:28;;;;;;;;;;;21.70;60.60;;;;;;5063580;28;19916;-60
2021/08/12 09:46:56;;;;;;;;;;;21.70;60.60;;;;;;5063837;28;19924;-61
2021/08/12 09:49:22;;;;;;;;;;;21.70;60.20;;;;;;5063583;28;20704;-60
2021/08/12 09:51:48;;;;;;;;;;;21.70;60.40;;;;;;5062234;28;19920;-60
2021/08/12 09:54:13;;;;;;;;;;;21.70;60.70;;;;;;5063659;28;20289;-60
2021/08/12 09:56:39;;;;;;;;;;;21.70;60.80;;;;;;5061977;28;20707;-60
2021/08/12 09:59:07;;;;;;;;;;;21.70;60.70;;;;;;5058045;28;19916;-60
2021/08/12 10:01:32;;;;;;;;;;;21.70;60.70;;;;;;5060507;28;19931;-59
2021/08/12 10:03:58;;;;;;;;;;;21.60;60.70;;;;;;5055726;28;21850;-59
2021/08/12 10:06:24;;;;;;;;;;;21.70;60.80;;;;;;5070238;28;19916;-60
2021/08/12 10:08:50;;;;;;;;;;;21.70;60.80;;;;;;5060560;28;20317;-60
2021/08/12 10:11:18;;;;;;;;;;;21.70;60.70;;;;;;5062698;28;19913;-61
2021/08/12 10:13:44;;;;;;;;;;;21.70;60.60;;;;;;5056302;28;19919;-59
2021/08/12 10:16:09;;;;;;;;;;;21.70;60.70;;;;;;5074863;28;19912;-60
2021/08/12 10:18:38;;;;;;;;;;;21.70;60.70;;;;;;5052748;28;20718;-59
2021/08/12 10:21:03;;;;;;;;;;;21.70;60.70;;;;;;5061197;28;19920;-60
2021/08/12 10:23:31;;;;;;;;;;;21.70;60.70;;;;;;5053918;28;19916;-60
2021/08/12 10:25:58;;;;;;;;;;;21.70;60.80;;;;;;5071391;28;19921;-59
2021/08/12 10:28:23;;;;;;;;;;;21.70;60.70;;;;;;5050537;28;19966;-59
2021/08/12 10:30:49;;;;;;;;;;;21.70;60.70;;;;;;5060969;28;20340;-60
2021/08/12 10:33:14;;;;;;;;;;;21.70;60.60;;;;;;5051898;28;19943;-59
2021/08/12 10:35:39;;;;;;;;;;;21.70;60.70;;;;;;5077307;28;19927;-59
2021/08/12 10:38:05;;;;;;;;;;;21.70;60.80;;;;;;5062708;28;19924;-61
2021/08/12 10:40:34;;;;;;;;;;;21.70;61.10;;;;;;5064610;28;20312;-60
2021/08/12 10:43:00;;;;;;;;;;;21.70;61.00;;;;;;5061372;28;19922;-61
2021/08/12 10:45:26;;;;;;;;;;;21.70;60.90;;;;;;5059491;28;20019;-60
2021/08/12 10:47:54;;;;;;;;;;;21.70;61.40;;;;;;5062413;28;19920;-60
2021/08/12 10:50:23;;;;;;;;;;;21.70;60.30;;;;;;5049799;28;19916;-61
2021/08/12 10:53:18;;;;;;;;;;;21.70;59.80;;;;;;5054106;28;19925;-60
2021/08/12 10:55:43;;;;;;;;;;;21.70;59.90;;;;;;5033530;28;19917;-60
2021/08/12 10:58:18;;;;;;;;;;;21.70;60.20;;;;;;5039886;28;19921;-61
2021/08/12 11:00:46;;;;;;;;;;;21.70;60.30;;;;;;5058145;28;19928;-60
2021/08/12 11:03:12;;;;;;;;;;;21.70;60.40;;;;;;5059369;28;19912;-60
2021/08/12 11:05:56;;;;;;;;;;;21.70;60.50;;;;;;5062592;28;19917;-60
2021/08/12 11:08:41;;;;;;;;;;;21.70;60.60;;;;;;5049294;28;19992;-60
2021/08/12 11:11:06;;;;;;;;;;;21.70;60.60;;;;;;5073871;28;19920;-60
2021/08/12 11:13:32;;;;;;;;;;;21.70;60.70;;;;;;5050399;28;20274;-61
2021/08/12 11:15:58;;;;;;;;;;;21.70;60.60;;;;;;5074856;28;19917;-61
2021/08/12 11:18:41;;;;;;;;;;;21.70;60.70;;;;;;5051805;28;19963;-61
2021/08/12 11:21:24;;;;;;;;;;;21.70;60.70;;;;;;5073394;28;19916;-60
2021/08/12 11:23:49;;;;;;;;;;;21.70;60.60;;;;;;5050419;28;19955;-60
2021/08/12 11:26:15;;;;;;;;;;;21.70;60.40;;;;;;5072562;28;20314;-60
2021/08/12 11:28:47;;;;;;;;;;;21.70;60.00;;;;;;5055094;28;20363;-60
2021/08/12 11:31:23;;;;;;;;;;;21.70;59.60;;;;;;5051423;28;20008;-60
2021/08/12 11:33:49;;;;;;;;;;;21.70;59.50;;;;;;5060923;28;19912;-60
2021/08/12 11:36:16;;;;;;;;;;;21.70;59.30;;;;;;5062033;28;19986;-61
2021/08/12 11:38:43;;;;;;;;;;;21.70;59.10;;;;;;5053620;28;19923;-61
2021/08/12 11:41:08;;;;;;;;;;;21.80;59.00;;;;;;5073546;28;19935;-61
2021/08/12 11:43:34;;;;;;;;;;;21.80;58.90;;;;;;5050861;28;20607;-60
2021/08/12 11:45:59;;;;;;;;;;;21.70;58.90;;;;;;5074275;28;19921;-60
2021/08/12 11:48:25;;;;;;;;;;;21.70;59.00;;;;;;5049084;28;19975;-61
2021/08/12 11:50:50;;;;;;;;;;;21.70;59.00;;;;;;5075638;28;19917;-60
2021/08/12 11:53:15;;;;;;;;;;;21.70;58.80;;;;;;5049125;28;19916;-60
2021/08/12 11:55:42;;;;;;;;;;;21.80;58.90;;;;;;5060099;28;19917;-62
2021/08/12 11:58:08;;;;;;;;;;;21.70;58.70;;;;;;5049204;28;19928;-61
2021/08/12 12:00:33;;;;;;;;;;;21.80;58.80;;;;;;5067640;28;20609;-60
2021/08/12 12:03:02;;;;;;;;;;;21.80;59.10;;;;;;5065941;28;19913;-59
2021/08/12 12:05:28;;;;;;;;;;;21.70;59.20;;;;;;5069604;28;20004;-61
2021/08/12 12:07:54;;;;;;;;;;;21.70;59.40;;;;;;5065658;28;20006;-60
2021/08/12 12:10:30;;;;;;;;;;;21.80;59.50;;;;;;5069892;28;19916;-61
2021/08/12 12:13:16;;;;;;;;;;;21.80;59.60;;;;;;5045317;28;19969;-61
2021/08/12 12:15:42;;;;;;;;;;;21.80;59.80;;;;;;5039525;28;19913;-60
2021/08/12 12:18:08;;;;;;;;;;;21.80;59.80;;;;;;5058452;28;20394;-61
2021/08/12 12:20:36;;;;;;;;;;;21.80;59.90;;;;;;5066727;28;19916;-61
2021/08/12 12:23:02;;;;;;;;;;;21.80;60.00;;;;;;5065452;28;19917;-61
2021/08/12 12:25:28;;;;;;;;;;;21.80;60.20;;;;;;5066371;28;19985;-59
2021/08/12 12:27:54;;;;;;;;;;;21.80;60.20;;;;;;5063355;28;19922;-60
2021/08/12 12:30:20;;;;;;;;;;;21.80;60.20;;;;;;5067167;28;19920;-61
2021/08/12 12:32:55;;;;;;;;;;;21.80;60.20;;;;;;5063629;28;19960;-61
2021/08/12 12:35:21;;;;;;;;;;;21.80;60.10;;;;;;5068582;28;19920;-60
2021/08/12 12:37:47;;;;;;;;;;;21.80;60.20;;;;;;5062880;28;19920;-61
2021/08/12 12:40:16;;;;;;;;;;;21.80;60.20;;;;;;5067229;28;19998;-60
2021/08/12 12:42:41;;;;;;;;;;;21.80;60.00;;;;;;5056520;28;19917;-61
2021/08/12 12:45:07;;;;;;;;;;;21.80;60.10;;;;;;5066137;28;20509;-60
2021/08/12 12:47:33;;;;;;;;;;;21.80;60.00;;;;;;5065312;28;19951;-60
2021/08/12 12:50:04;;;;;;;;;;;21.80;60.00;;;;;;5065788;28;19916;-61
2021/08/12 12:52:30;;;;;;;;;;;21.80;60.00;;;;;;5066104;28;20412;-60
2021/08/12 12:54:58;;;;;;;;;;;21.90;60.50;;;;;;5064262;28;19912;-61
2021/08/12 12:57:33;;;;;;;;;;;21.80;59.80;;;;;;5062588;28;19921;-61
2021/08/12 12:59:58;;;;;;;;;;;21.90;59.70;;;;;;5064664;28;20462;-60
2021/08/12 13:02:24;;;;;;;;;;;21.80;59.60;;;;;;5068617;22;19982;-62
2021/08/12 13:04:58;;;;;;;;;;;21.80;59.30;;;;;;5057441;28;20404;-62
2021/08/12 13:07:24;;;;;;;;;;;21.90;59.20;;;;;;5057296;28;20071;-63
2021/08/12 13:09:49;;;;;;;;;;;21.90;58.90;;;;;;5058177;28;19920;-62
2021/08/12 13:12:31;;;;;;;;;;;21.90;59.00;;;;;;5058102;28;19924;-61
2021/08/12 13:15:12;;;;;;;;;;;21.90;59.00;;;;;;5059020;28;19921;-60
2021/08/12 13:17:38;;;;;;;;;;;21.90;58.80;;;;;;5059630;28;19982;-61
2021/08/12 13:20:13;;;;;;;;;;;21.90;58.90;;;;;;5061314;28;20324;-62
2021/08/12 13:22:41;;;;;;;;;;;21.90;59.30;;;;;;5061124;28;20009;-63
2021/08/12 13:25:25;;;;;;;;;;;21.90;59.10;;;;;;5061892;28;19924;-64
2021/08/12 13:27:52;;;;;;;;;;;21.90;59.10;;;;;;5060215;28;19963;-63
2021/08/12 13:30:18;;;;;;;;;;;21.90;58.50;;;;;;5059201;28;19999;-64
2021/08/12 13:32:43;;;;;;;;;;;21.90;58.50;;;;;;5061447;28;20467;-62
2021/08/12 13:35:09;;;;;;;;;;;21.90;58.20;;;;;;5061682;28;19916;-64
2021/08/12 13:37:34;;;;;;;;;;;21.90;58.10;;;;;;5060308;28;20365;-63
2021/08/12 13:40:00;;;;;;;;;;;21.90;58.30;;;;;;5060443;28;19916;-63
2021/08/12 13:42:25;;;;;;;;;;;21.90;58.20;;;;;;5058779;28;19917;-64
2021/08/12 13:44:51;;;;;;;;;;;22.00;58.50;;;;;;5061203;28;19913;-63
2021/08/12 13:47:16;;;;;;;;;;;22.00;58.70;;;;;;5060793;28;19921;-62
2021/08/12 13:49:42;;;;;;;;;;;21.90;59.00;;;;;;5061744;28;19950;-63
2021/08/12 13:52:07;;;;;;;;;;;22.00;59.10;;;;;;5058614;28;19997;-64
2021/08/12 13:54:36;;;;;;;;;;;22.00;59.20;;;;;;5060156;28;19955;-63
2021/08/12 13:57:02;;;;;;;;;;;22.00;59.20;;;;;;5059622;28;20353;-64
2021/08/12 13:59:27;;;;;;;;;;;22.00;59.30;;;;;;5060431;28;19916;-64
2021/08/12 14:01:53;;;;;;;;;;;22.00;59.40;;;;;;5061251;28;20389;-64
2021/08/12 14:04:18;;;;;;;;;;;22.00;59.20;;;;;;5058842;28;19912;-63
2021/08/12 14:06:44;;;;;;;;;;;22.00;59.30;;;;;;5061332;28;20481;-63
2021/08/12 14:09:09;;;;;;;;;;;22.00;59.30;;;;;;5056882;28;19916;-64
2021/08/12 14:11:35;;;;;;;;;;;22.00;59.10;;;;;;5059791;28;20269;-63
2021/08/12 14:14:01;;;;;;;;;;;22.00;59.10;;;;;;5060156;28;19971;-64